createdAt,value
2018-11-05T00:00:20.123Z,11.15
2018-11-05T00:02:50.640Z,11.18
2018-11-05T00:05:19.378Z,11.24
2018-11-05T00:07:47.995Z,11.19
2018-11-05T00:10:16.778Z,11.19
2018-11-05T00:12:45.392Z,11.21
2018-11-05T00:15:14.084Z,11.25
2018-11-05T00:17:42.744Z,11.23
2018-11-05T00:20:12.094Z,11.29
2018-11-05T00:22:40.771Z,11.32
2018-11-05T00:25:11.424Z,11.33
2018-11-05T00:27:40.549Z,11.38
2018-11-05T00:30:10.748Z,11.45
2018-11-05T00:32:39.407Z,11.52
2018-11-05T00:35:08.058Z,11.47
2018-11-05T00:37:36.753Z,11.46
2018-11-05T00:40:08.095Z,11.49
2018-11-05T00:42:36.745Z,11.50
2018-11-05T00:45:06.877Z,11.55
2018-11-05T00:47:35.543Z,11.45
2018-11-05T00:50:05.065Z,11.46
2018-11-05T00:52:33.675Z,11.44
2018-11-05T00:55:02.970Z,11.44
2018-11-05T00:57:31.671Z,11.61
2018-11-05T01:00:00.704Z,11.61
2018-11-05T01:02:29.521Z,11.63
2018-11-05T01:04:58.234Z,11.57
2018-11-05T01:07:26.872Z,11.57
2018-11-05T01:09:55.525Z,11.58
2018-11-05T01:12:24.172Z,11.60
2018-11-05T01:14:52.820Z,11.64
2018-11-05T01:17:21.460Z,11.63
2018-11-05T01:19:50.117Z,11.64
2018-11-05T01:22:18.798Z,11.70
2018-11-05T01:24:47.691Z,11.66
2018-11-05T01:27:16.314Z,11.71
2018-11-05T01:29:45.393Z,11.73
2018-11-05T01:32:15.366Z,11.64
2018-11-05T01:34:45.920Z,11.65
2018-11-05T01:37:14.555Z,11.64
2018-11-05T01:39:43.153Z,11.67
2018-11-05T01:42:11.788Z,11.66
2018-11-05T01:44:40.415Z,11.63
2018-11-05T01:47:09.207Z,11.66
2018-11-05T01:52:16.899Z,11.66
2018-11-05T01:54:45.633Z,11.60
2018-11-05T01:57:16.523Z,11.69
2018-11-05T01:59:45.602Z,11.63
2018-11-05T02:02:14.317Z,11.66
2018-11-05T02:04:43.645Z,11.64
2018-11-05T02:07:12.268Z,11.64
2018-11-05T02:09:40.880Z,11.60
2018-11-05T02:12:09.523Z,11.58
2018-11-05T02:14:38.148Z,11.63
2018-11-05T02:17:06.836Z,11.64
2018-11-05T02:19:35.492Z,11.67
2018-11-05T02:22:04.162Z,11.58
2018-11-05T02:24:33.202Z,11.56
2018-11-05T02:27:07.163Z,11.58
2018-11-05T02:29:35.793Z,11.62
2018-11-05T02:32:04.581Z,11.59
2018-11-05T02:34:33.280Z,11.57
2018-11-05T02:37:02.187Z,11.59
2018-11-05T02:39:30.866Z,11.60
2018-11-05T02:41:59.528Z,11.64
2018-11-05T02:44:28.114Z,11.68
2018-11-05T02:46:56.760Z,11.67
2018-11-05T02:49:25.390Z,11.66
2018-11-05T02:51:54.035Z,11.64
2018-11-05T02:54:22.649Z,11.68
2018-11-05T02:56:51.237Z,11.73
2018-11-05T02:59:19.833Z,11.74
2018-11-05T03:01:48.466Z,11.68
2018-11-05T03:04:17.064Z,11.67
2018-11-05T03:06:45.723Z,11.66
2018-11-05T03:09:14.339Z,11.69
2018-11-05T03:11:42.976Z,11.60
2018-11-05T03:14:11.618Z,11.65
2018-11-05T03:16:40.228Z,11.64
2018-11-05T03:19:09.007Z,11.64
2018-11-05T03:21:37.614Z,11.69
2018-11-05T03:24:06.369Z,11.72
2018-11-05T03:26:35.014Z,11.62
2018-11-05T03:29:03.697Z,11.52
2018-11-05T03:31:32.305Z,11.53
2018-11-05T03:34:01.003Z,11.54
2018-11-05T03:36:29.808Z,11.48
2018-11-05T03:38:58.562Z,11.53
2018-11-05T03:41:27.161Z,11.52
2018-11-05T03:43:55.877Z,11.50
2018-11-05T03:46:24.562Z,11.48
2018-11-05T03:48:53.381Z,11.49
2018-11-05T03:51:22.002Z,11.54
2018-11-05T03:53:50.710Z,11.57
2018-11-05T03:56:19.514Z,11.60
2018-11-05T03:58:48.265Z,11.52
2018-11-05T04:01:16.956Z,11.53
2018-11-05T04:03:45.902Z,11.60
2018-11-05T04:06:14.546Z,11.54
2018-11-05T04:08:43.266Z,11.57
2018-11-05T04:11:11.915Z,11.58
2018-11-05T04:13:40.526Z,11.56
2018-11-05T04:16:09.216Z,11.61
2018-11-05T04:18:37.838Z,11.57
2018-11-05T04:21:06.606Z,11.61
2018-11-05T04:23:35.286Z,11.60
2018-11-05T04:26:04.113Z,11.56
2018-11-05T04:28:32.809Z,11.55
2018-11-05T04:31:01.420Z,11.52
2018-11-05T04:33:30.032Z,11.58
2018-11-05T04:35:58.859Z,11.61
2018-11-05T04:38:27.446Z,11.61
2018-11-05T04:40:56.342Z,11.61
2018-11-05T04:43:24.978Z,11.51
2018-11-05T04:45:53.778Z,11.60
2018-11-05T04:48:22.574Z,11.49
2018-11-05T04:50:51.323Z,11.56
2018-11-05T04:53:19.915Z,11.50
2018-11-05T04:55:48.774Z,11.61
2018-11-05T04:58:17.420Z,11.58
2018-11-05T05:00:46.280Z,11.49
2018-11-05T05:03:14.941Z,11.49
2018-11-05T05:05:43.570Z,11.53
2018-11-05T05:08:12.279Z,11.53
2018-11-05T05:10:40.961Z,11.43
2018-11-05T05:13:09.600Z,11.45
2018-11-05T05:15:38.562Z,11.38
2018-11-05T05:18:08.013Z,11.36
2018-11-05T05:20:36.646Z,11.37
2018-11-05T05:23:06.441Z,11.31
2018-11-05T05:25:34.972Z,11.21
2018-11-05T05:28:04.001Z,11.23
2018-11-05T05:30:32.634Z,11.21
2018-11-05T05:33:01.506Z,11.21
2018-11-05T05:35:30.071Z,11.22
2018-11-05T05:37:58.707Z,11.25
2018-11-05T05:40:30.042Z,11.22
2018-11-05T05:42:58.768Z,11.23
2018-11-05T05:45:31.759Z,11.24
2018-11-05T05:48:01.124Z,11.22
2018-11-05T05:50:29.736Z,11.20
2018-11-05T05:52:58.618Z,11.20
2018-11-05T05:55:27.485Z,11.14
2018-11-05T05:57:56.903Z,11.09
2018-11-05T06:00:25.599Z,11.03
2018-11-05T06:02:54.627Z,10.95
2018-11-05T06:05:23.311Z,10.93
2018-11-05T06:07:51.958Z,10.93
2018-11-05T06:10:20.600Z,10.88
2018-11-05T06:12:49.226Z,10.93
2018-11-05T06:15:18.000Z,10.90
2018-11-05T06:17:46.644Z,10.88
2018-11-05T06:20:17.195Z,10.81
2018-11-05T06:22:46.715Z,10.78
2018-11-05T06:25:15.590Z,10.82
2018-11-05T06:27:44.315Z,10.85
2018-11-05T06:30:15.654Z,10.80
2018-11-05T06:32:45.458Z,10.79
2018-11-05T06:35:14.265Z,10.79
2018-11-05T06:37:43.032Z,10.81
2018-11-05T06:40:14.631Z,10.77
2018-11-05T06:42:43.809Z,10.74
2018-11-05T06:45:13.916Z,10.72
2018-11-05T06:47:43.518Z,10.71
2018-11-05T06:50:17.409Z,10.71
2018-11-05T06:52:46.309Z,10.65
2018-11-05T06:55:15.741Z,10.70
2018-11-05T06:57:44.468Z,10.71
2018-11-05T07:00:16.210Z,10.73
2018-11-05T07:02:45.109Z,10.80
2018-11-05T07:05:14.268Z,10.83
2018-11-05T07:07:42.968Z,10.83
2018-11-05T07:10:12.970Z,10.86
2018-11-05T07:12:42.322Z,10.94
2018-11-05T07:15:12.578Z,10.95
2018-11-05T07:17:41.565Z,10.99
2018-11-05T07:20:12.618Z,11.02
2018-11-05T07:22:41.343Z,11.05
2018-11-05T07:25:11.433Z,11.03
2018-11-05T07:27:40.189Z,10.99
2018-11-05T07:30:22.212Z,10.99
2018-11-05T07:32:52.037Z,10.98
2018-11-05T07:35:20.798Z,10.96
2018-11-05T07:37:49.534Z,10.98
2018-11-05T07:40:19.279Z,11.02
2018-11-05T07:42:48.038Z,11.02
2018-11-05T07:45:21.277Z,11.04
2018-11-05T07:47:50.115Z,11.06
2018-11-05T07:50:19.675Z,11.13
2018-11-05T07:52:48.516Z,11.20
2018-11-05T07:55:18.335Z,11.19
2018-11-05T07:57:47.997Z,11.17
2018-11-05T08:00:22.310Z,11.17
2018-11-05T08:02:52.744Z,11.18
2018-11-05T08:05:22.011Z,11.18
2018-11-05T08:07:51.031Z,11.18
2018-11-05T08:10:19.850Z,11.21
2018-11-05T08:12:48.583Z,11.08
2018-11-05T08:15:18.725Z,11.17
2018-11-05T08:17:48.399Z,11.27
2018-11-05T08:20:17.328Z,11.31
2018-11-05T08:22:45.998Z,11.33
2018-11-05T08:25:15.671Z,11.32
2018-11-05T08:27:44.441Z,11.31
2018-11-05T08:30:21.502Z,11.29
2018-11-05T08:32:50.333Z,11.25
2018-11-05T08:35:19.268Z,11.34
2018-11-05T08:37:53.216Z,11.42
2018-11-05T08:40:23.967Z,11.42
2018-11-05T08:42:53.481Z,11.49
2018-11-05T08:45:23.501Z,11.55
2018-11-05T08:47:52.208Z,11.45
2018-11-05T08:50:22.326Z,11.46
2018-11-05T08:52:50.970Z,11.47
2018-11-05T08:55:21.037Z,11.48
2018-11-05T08:57:49.834Z,11.58
2018-11-05T09:00:24.225Z,11.57
2018-11-05T09:02:53.524Z,11.56
2018-11-05T09:05:22.461Z,11.50
2018-11-05T09:07:52.141Z,11.45
2018-11-05T09:10:20.995Z,11.45
2018-11-05T09:12:49.618Z,11.55
2018-11-05T09:15:19.547Z,11.66
2018-11-05T09:17:48.546Z,11.72
2018-11-05T09:20:18.192Z,11.73
2018-11-05T09:22:47.380Z,11.71
2018-11-05T09:25:16.788Z,11.70
2018-11-05T09:27:45.524Z,11.72
2018-11-05T09:30:17.042Z,11.85
2018-11-05T09:32:46.240Z,11.96
2018-11-05T09:35:15.001Z,12.01
2018-11-05T09:37:43.718Z,12.22
2018-11-05T09:40:14.897Z,12.35
2018-11-05T09:42:44.426Z,12.39
2018-11-05T09:45:15.462Z,12.53
2018-11-05T09:47:44.774Z,12.64
2018-11-05T09:50:16.911Z,12.64
2018-11-05T09:52:45.710Z,12.61
2018-11-05T09:55:14.927Z,12.63
2018-11-05T09:57:43.698Z,12.58
2018-11-05T10:00:13.983Z,12.58
2018-11-05T10:02:48.020Z,12.54
2018-11-05T10:05:17.130Z,12.52
2018-11-05T10:07:46.123Z,12.40
2018-11-05T10:10:15.835Z,12.37
2018-11-05T10:12:44.846Z,12.26
2018-11-05T10:15:14.600Z,12.31
2018-11-05T10:17:43.342Z,12.30
2018-11-05T10:20:15.349Z,12.28
2018-11-05T10:22:44.537Z,12.23
2018-11-05T10:25:13.783Z,12.13
2018-11-05T10:27:42.526Z,12.11
2018-11-05T10:30:13.602Z,12.13
2018-11-05T10:32:42.850Z,12.05
2018-11-05T10:35:12.127Z,11.96
2018-11-05T10:37:40.978Z,11.85
2018-11-05T10:40:13.697Z,11.80
2018-11-05T10:42:43.198Z,11.84
2018-11-05T10:45:13.363Z,11.78
2018-11-05T10:47:42.408Z,11.77
2018-11-05T10:50:12.593Z,11.76
2018-11-05T10:52:41.309Z,11.78
2018-11-05T10:55:10.457Z,11.75
2018-11-05T10:57:39.668Z,11.77
2018-11-05T11:00:30.285Z,11.84
2018-11-05T11:03:04.017Z,11.77
2018-11-05T11:05:33.050Z,11.84
2018-11-05T11:08:02.555Z,11.92
2018-11-05T11:10:32.423Z,11.82
2018-11-05T11:13:01.140Z,11.83
2018-11-05T11:15:30.165Z,11.90
2018-11-05T11:17:59.166Z,11.94
2018-11-05T11:20:27.847Z,11.95
2018-11-05T11:22:56.588Z,11.97
2018-11-05T11:25:25.314Z,11.99
2018-11-05T11:27:54.134Z,11.97
2018-11-05T11:30:22.798Z,11.96
2018-11-05T11:32:52.658Z,12.02
2018-11-05T11:35:21.368Z,12.00
2018-11-05T11:37:50.104Z,12.00
2018-11-05T11:40:20.350Z,11.96
2018-11-05T11:42:49.655Z,11.99
2018-11-05T11:45:19.629Z,12.04
2018-11-05T11:47:48.302Z,12.09
2018-11-05T11:50:17.580Z,12.15
2018-11-05T11:52:46.765Z,12.26
2018-11-05T11:55:17.772Z,12.29
2018-11-05T11:57:46.619Z,12.32
2018-11-05T12:00:21.515Z,12.30
2018-11-05T12:02:50.591Z,12.26
2018-11-05T12:05:19.449Z,12.34
2018-11-05T12:07:47.994Z,12.40
2018-11-05T12:10:22.674Z,12.49
2018-11-05T12:12:52.075Z,12.68
2018-11-05T12:15:21.810Z,12.87
2018-11-05T12:17:51.619Z,12.84
2018-11-05T12:20:21.686Z,13.01
2018-11-05T12:22:50.859Z,13.05
2018-11-05T12:25:19.558Z,12.97
2018-11-05T12:27:48.287Z,13.01
2018-11-05T12:30:19.088Z,13.08
2018-11-05T12:32:48.699Z,13.22
2018-11-05T12:35:17.445Z,13.30
2018-11-05T12:37:47.254Z,13.30
2018-11-05T12:40:16.997Z,13.38
2018-11-05T12:42:46.766Z,13.38
2018-11-05T12:45:15.486Z,13.29
2018-11-05T12:47:44.244Z,13.39
2018-11-05T12:50:15.626Z,13.43
2018-11-05T12:52:45.490Z,13.46
2018-11-05T12:55:19.165Z,13.57
2018-11-05T12:57:48.210Z,13.63
2018-11-05T13:00:19.843Z,13.66
2018-11-05T13:03:00.823Z,13.81
2018-11-05T13:05:30.622Z,14.02
2018-11-05T13:07:59.366Z,14.20
2018-11-05T13:10:28.056Z,14.37
2018-11-05T13:12:57.119Z,14.29
2018-11-05T13:15:25.891Z,14.47
2018-11-05T13:17:54.469Z,14.64
2018-11-05T13:20:24.141Z,14.86
2018-11-05T13:22:53.445Z,15.11
2018-11-05T13:25:22.128Z,15.39
2018-11-05T13:27:51.542Z,15.39
2018-11-05T13:30:20.398Z,15.50
2018-11-05T13:32:50.258Z,15.42
2018-11-05T13:35:20.196Z,15.47
2018-11-05T13:37:49.334Z,15.63
2018-11-05T13:40:24.251Z,15.37
2018-11-05T13:42:53.150Z,15.29
2018-11-05T13:45:22.539Z,15.26
2018-11-05T13:47:51.856Z,15.20
2018-11-05T13:50:20.125Z,15.21
2018-11-05T13:52:48.604Z,15.35
2018-11-05T13:55:17.773Z,15.52
2018-11-05T13:57:47.646Z,15.58
2018-11-05T14:00:17.477Z,15.60
2018-11-05T14:02:46.417Z,15.79
2018-11-05T14:05:16.455Z,15.93
2018-11-05T14:07:45.511Z,15.82
2018-11-05T14:10:17.786Z,15.70
2018-11-05T14:12:47.002Z,15.60
2018-11-05T14:15:15.697Z,15.61
2018-11-05T14:17:45.180Z,15.65
2018-11-05T14:20:14.949Z,15.70
2018-11-05T14:22:44.771Z,15.67
2018-11-05T14:25:14.619Z,15.76
2018-11-05T14:27:44.775Z,15.79
2018-11-05T14:30:13.901Z,15.82
2018-11-05T14:32:43.916Z,15.84
2018-11-05T14:35:12.661Z,15.81
2018-11-05T14:37:41.513Z,15.71
2018-11-05T14:40:12.213Z,15.69
2018-11-05T14:42:42.078Z,15.45
2018-11-05T14:45:12.837Z,15.22
2018-11-05T14:47:42.515Z,14.89
2018-11-05T14:50:13.107Z,14.62
2018-11-05T14:52:41.889Z,14.45
2018-11-05T14:55:13.010Z,14.15
2018-11-05T14:57:42.222Z,13.94
2018-11-05T15:00:13.961Z,13.88
2018-11-05T15:02:43.155Z,13.82
2018-11-05T15:05:12.668Z,13.67
2018-11-05T15:07:42.126Z,13.48
2018-11-05T15:10:13.497Z,13.38
2018-11-05T15:12:42.799Z,13.29
2018-11-05T15:15:12.485Z,13.13
2018-11-05T15:17:42.399Z,13.10
2018-11-05T15:20:13.570Z,12.95
2018-11-05T15:22:42.482Z,12.79
2018-11-05T15:25:11.816Z,12.76
2018-11-05T15:27:40.850Z,12.62
2018-11-05T15:30:12.699Z,12.56
2018-11-05T15:32:42.043Z,12.58
2018-11-05T15:35:11.832Z,12.51
2018-11-05T15:37:42.889Z,12.43
2018-11-05T15:40:14.935Z,12.45
2018-11-05T15:42:44.428Z,12.35
2018-11-05T15:45:14.926Z,12.23
2018-11-05T15:47:44.482Z,12.21
2018-11-05T15:50:14.895Z,12.21
2018-11-05T15:52:44.104Z,12.17
2018-11-05T15:55:13.352Z,12.09
2018-11-05T15:57:43.619Z,12.00
2018-11-05T16:00:32.246Z,11.96
2018-11-05T16:03:01.948Z,11.99
2018-11-05T16:05:30.787Z,12.05
2018-11-05T16:08:01.441Z,12.00
2018-11-05T16:10:30.326Z,12.00
2018-11-05T16:12:59.720Z,11.99
2018-11-05T16:15:29.143Z,11.98
2018-11-05T16:17:57.949Z,11.87
2018-11-05T16:20:26.671Z,11.84
2018-11-05T16:22:55.885Z,11.80
2018-11-05T16:25:24.789Z,11.87
2018-11-05T16:27:53.501Z,11.86
2018-11-05T16:30:22.718Z,11.92
2018-11-05T16:32:52.198Z,11.95
2018-11-05T16:35:21.994Z,12.00
2018-11-05T16:37:52.390Z,11.97
2018-11-05T16:40:21.224Z,12.10
2018-11-05T16:42:51.598Z,12.23
2018-11-05T16:45:21.235Z,12.17
2018-11-05T16:47:50.458Z,12.22
2018-11-05T16:50:26.779Z,12.15
2018-11-05T16:52:55.523Z,12.21
2018-11-05T16:55:24.822Z,12.27
2018-11-05T16:57:54.857Z,12.29
2018-11-05T17:00:24.064Z,12.24
2018-11-05T17:02:53.733Z,12.27
2018-11-05T17:05:24.712Z,12.31
2018-11-05T17:07:53.449Z,12.30
2018-11-05T17:10:22.161Z,12.23
2018-11-05T17:12:50.861Z,12.17
2018-11-05T17:15:19.549Z,12.10
2018-11-05T17:17:48.209Z,12.02
2018-11-05T17:20:18.223Z,12.12
2018-11-05T17:22:46.841Z,12.11
2018-11-05T17:25:16.067Z,12.08
2018-11-05T17:27:45.713Z,12.08
2018-11-05T17:30:16.844Z,12.11
2018-11-05T17:32:45.681Z,12.07
2018-11-05T17:35:15.169Z,12.00
2018-11-05T17:37:44.293Z,11.94
2018-11-05T17:40:15.117Z,11.92
2018-11-05T17:42:43.932Z,11.92
2018-11-05T17:45:14.925Z,11.90
2018-11-05T17:47:43.685Z,12.03
2018-11-05T17:50:14.486Z,11.98
2018-11-05T17:52:43.777Z,11.93
2018-11-05T17:55:13.365Z,11.95
2018-11-05T17:57:43.186Z,11.97
2018-11-05T18:00:22.114Z,11.86
2018-11-05T18:02:50.766Z,11.76
2018-11-05T18:05:19.726Z,11.77
2018-11-05T18:07:48.490Z,11.78
2018-11-05T18:10:17.253Z,11.73
2018-11-05T18:12:46.113Z,11.75
2018-11-05T18:15:14.812Z,11.77
2018-11-05T18:17:45.671Z,11.76
2018-11-05T18:20:15.197Z,11.80
2018-11-05T18:22:44.893Z,11.78
2018-11-05T18:25:14.955Z,11.81
2018-11-05T18:27:43.739Z,11.84
2018-11-05T18:30:13.257Z,11.76
2018-11-05T18:32:41.961Z,11.69
2018-11-05T18:35:12.078Z,11.67
2018-11-05T18:37:41.295Z,11.67
2018-11-05T18:40:14.942Z,11.61
2018-11-05T18:42:44.281Z,11.54
2018-11-05T18:45:13.275Z,11.69
2018-11-05T18:47:43.336Z,11.66
2018-11-05T18:50:13.879Z,11.60
2018-11-05T18:52:42.895Z,11.62
2018-11-05T18:55:12.960Z,11.68
2018-11-05T18:57:41.871Z,11.57
2018-11-05T19:00:19.204Z,11.55
2018-11-05T19:02:50.397Z,11.46
2018-11-05T19:05:21.299Z,11.57
2018-11-05T19:07:50.505Z,11.54
2018-11-05T19:10:19.425Z,11.47
2018-11-05T19:12:49.491Z,11.53
2018-11-05T19:15:19.042Z,11.60
2018-11-05T19:17:48.838Z,11.56
2018-11-05T19:20:19.512Z,11.56
2018-11-05T19:22:48.494Z,11.61
2018-11-05T19:25:18.303Z,11.61
2018-11-05T19:27:47.050Z,11.61
2018-11-05T19:30:19.484Z,11.56
2018-11-05T19:32:48.348Z,11.63
2018-11-05T19:35:17.070Z,11.61
2018-11-05T19:37:45.885Z,11.60
2018-11-05T19:40:15.572Z,11.53
2018-11-05T19:42:45.753Z,11.44
2018-11-05T19:45:16.592Z,11.39
2018-11-05T19:47:45.487Z,11.44
2018-11-05T19:50:17.244Z,11.43
2018-11-05T19:52:47.023Z,11.49
2018-11-05T19:55:16.704Z,11.44
2018-11-05T19:57:46.190Z,11.41
2018-11-05T20:00:16.061Z,11.40
2018-11-05T20:02:45.401Z,11.34
2018-11-05T20:05:14.764Z,11.37
2018-11-05T20:07:43.677Z,11.40
2018-11-05T20:10:12.958Z,11.41
2018-11-05T20:12:42.668Z,11.37
2018-11-05T20:15:11.769Z,11.28
2018-11-05T20:17:41.993Z,11.21
2018-11-05T20:20:12.810Z,11.32
2018-11-05T20:22:41.559Z,11.32
2018-11-05T20:25:10.458Z,11.35
2018-11-05T20:27:40.348Z,11.37
2018-11-05T20:30:13.982Z,11.31
2018-11-05T20:32:43.565Z,11.34
2018-11-05T20:35:12.062Z,11.26
2018-11-05T20:37:40.771Z,11.24
2018-11-05T20:40:12.525Z,11.22
2018-11-05T20:42:41.853Z,11.23
2018-11-05T20:45:10.597Z,11.25
2018-11-05T20:47:39.674Z,11.24
2018-11-05T20:50:09.388Z,11.18
2018-11-05T20:52:38.414Z,11.16
2018-11-05T20:55:07.930Z,11.19
2018-11-05T20:57:36.944Z,11.20
2018-11-05T21:00:07.191Z,11.24
2018-11-05T21:02:35.982Z,11.19
2018-11-05T21:05:04.971Z,11.30
2018-11-05T21:07:33.999Z,11.36
2018-11-05T21:10:03.173Z,11.30
2018-11-05T21:12:32.676Z,11.31
2018-11-05T21:15:01.416Z,11.34
2018-11-05T21:17:30.077Z,11.31
2018-11-05T21:19:58.810Z,11.39
2018-11-05T21:22:28.477Z,11.39
2018-11-05T21:24:57.272Z,11.38
2018-11-05T21:27:26.428Z,11.36
2018-11-05T21:29:55.097Z,11.41
2018-11-05T21:32:25.660Z,11.57
2018-11-05T21:34:55.689Z,11.53
2018-11-05T21:37:24.514Z,11.49
2018-11-05T21:39:53.184Z,11.50
2018-11-05T21:42:22.372Z,11.45
2018-11-05T21:44:51.098Z,11.53
2018-11-05T21:47:19.756Z,11.41
2018-11-05T21:49:48.509Z,11.43
2018-11-05T21:52:17.150Z,11.35
2018-11-05T21:54:46.209Z,11.34
2018-11-05T21:57:14.936Z,11.46
2018-11-05T21:59:43.597Z,11.58
2018-11-05T22:02:12.250Z,11.53
2018-11-05T22:04:41.005Z,11.41
2018-11-05T22:07:09.676Z,11.40
2018-11-05T22:09:38.318Z,11.45
2018-11-05T22:12:07.094Z,11.50
2018-11-05T22:14:35.807Z,11.49
2018-11-05T22:17:04.445Z,11.47
2018-11-05T22:19:33.150Z,11.49
2018-11-05T22:22:07.415Z,11.48
2018-11-05T22:24:36.057Z,11.50
2018-11-05T22:27:04.778Z,11.46
2018-11-05T22:29:33.413Z,11.56
2018-11-05T22:32:02.067Z,11.54
2018-11-05T22:34:30.739Z,11.35
2018-11-05T22:36:59.449Z,11.39
2018-11-05T22:39:28.089Z,11.36
2018-11-05T22:41:56.723Z,11.35
2018-11-05T22:44:25.460Z,11.39
2018-11-05T22:46:54.281Z,11.44
2018-11-05T22:49:22.880Z,11.35
2018-11-05T22:51:51.559Z,11.28
2018-11-05T22:54:20.195Z,11.21
2018-11-05T22:56:48.913Z,11.28
2018-11-05T22:59:17.609Z,11.35
2018-11-05T23:01:51.345Z,11.31
2018-11-05T23:04:20.709Z,11.29
2018-11-05T23:06:50.176Z,11.26
2018-11-05T23:09:18.861Z,11.12
2018-11-05T23:11:47.961Z,11.14
2018-11-05T23:14:16.608Z,11.14
2018-11-05T23:16:45.518Z,11.09
2018-11-05T23:19:14.783Z,11.13
2018-11-05T23:21:43.489Z,11.15
2018-11-05T23:24:12.150Z,11.12
2018-11-05T23:26:40.788Z,11.11
2018-11-05T23:29:09.408Z,11.25
2018-11-05T23:31:38.018Z,11.20
2018-11-05T23:34:06.841Z,11.23
2018-11-05T23:36:35.486Z,11.18
2018-11-05T23:39:09.488Z,11.10
2018-11-05T23:41:38.225Z,11.05
2018-11-05T23:44:07.356Z,10.98
2018-11-05T23:46:36.134Z,10.93
2018-11-05T23:49:04.875Z,10.93
2018-11-05T23:51:33.580Z,10.86
2018-11-05T23:54:02.189Z,10.84
2018-11-05T23:56:30.897Z,10.81
2018-11-05T23:58:59.565Z,10.76
